Meteorología y climatología de Navarra
Datos de la estación - Meteo Navarra

Estación de Aoiz GN

Altitud 534 m.


Datos desde el 07/12/2018 hasta el 08/12/2018 en horario solar
Los datos son PROVISIONALES

Anterior Página 1 de 1 Siguiente Descargar: Formato para Excel 2000 o superior   Formato csv   Formato para OpenOffice Calc
Fecha Temperatura Humedad relativa Radiación global Insolación Precipitación Velocidad viento 10 m Velocidad viento 10 m Dirección viento 10 m
ºC % W/m² s l/m² m/s km/h º
07/12/2018 0:00 9.2 68 0.0 0 0.0 3.4 12.3 291
07/12/2018 0:10 9.3 67 0.0 0 0.0 2.6 9.2 307
07/12/2018 0:20 9.2 68 0.0 0 0.0 2.8 10.0 297
07/12/2018 0:30 9.0 68 0.0 0 0.0 3.0 10.9 290
07/12/2018 0:40 8.8 69 0.0 0 0.0 3.1 11.1 292
07/12/2018 0:50 8.5 70 0.0 0 0.0 2.5 9.0 291
07/12/2018 1:00 8.3 71 0.0 0 0.0 2.3 8.4 297
07/12/2018 1:10 8.2 71 0.0 0 0.0 2.2 7.8 281
07/12/2018 1:20 7.7 74 0.0 0 0.0 2.5 8.9 301
07/12/2018 1:30 8.1 72 0.0 0 0.0 2.3 8.1 293
07/12/2018 1:40 7.4 75 0.0 0 0.0 0.7 2.5 312
07/12/2018 1:50 6.7 79 0.0 0 0.0 0.6 2.2 45
07/12/2018 2:00 6.0 83 0.0 0 0.0 0.7 2.4 59
07/12/2018 2:10 6.1 83 0.0 0 0.0 1.2 4.5 27
07/12/2018 2:20 5.5 84 0.0 0 0.0 0.5 1.9 32
07/12/2018 2:30 5.1 87 0.0 0 0.0 0.5 1.9 32
07/12/2018 2:40 4.7 89 0.0 0 0.0 0.2 0.5 49
07/12/2018 2:50 4.6 90 0.0 0 0.0 0.3 1.1 81
07/12/2018 3:00 4.6 92 0.0 0 0.0 1.0 3.5 46
07/12/2018 3:10 4.9 94 0.0 0 0.0 1.3 4.7 32
07/12/2018 3:20 4.7 92 0.0 0 0.0 0.8 2.8 298
07/12/2018 3:30 3.7 94 0.0 0 0.0 0.8 3.0 265
07/12/2018 3:40 3.5 96 0.0 0 0.0 0.5 1.8 263
07/12/2018 3:50 3.5 97 0.0 0 0.0 0.0 0.1 263
07/12/2018 4:00 3.5 98 0.0 0 0.0 0.3 0.9 274
07/12/2018 4:10 3.6 99 0.0 0 0.0 0.1 0.4 350
07/12/2018 4:20 2.9 98 0.0 0 0.0 1.2 4.1 267
07/12/2018 4:30 2.8 99 0.0 0 0.0 0.9 3.1 280
07/12/2018 4:40 2.6 100 0.0 0 0.0 0.2 0.7 283
07/12/2018 4:50 2.7 100 0.0 0 0.0 0.0 0.0 283
07/12/2018 5:00 2.3 100 0.0 0 0.0 0.0 0.1 281
07/12/2018 5:10 2.4 100 0.0 0 0.0 0.2 0.5 281
07/12/2018 5:20 2.2 100 0.0 0 0.0 0.1 0.3 281
07/12/2018 5:30 2.2 100 0.0 0 0.0 0.3 0.9 281
07/12/2018 5:40 2.1 100 0.0 0 0.0 0.2 0.8 357
07/12/2018 5:50 2.0 100 0.0 0 0.0 0.2 0.7 2
07/12/2018 6:00 1.8 100 0.0 0 0.0 0.5 1.8 243
07/12/2018 6:10 1.8 100 0.0 0 0.0 0.9 3.3 242
07/12/2018 6:20 1.5 100 0.0 0 0.0 0.9 3.2 261
07/12/2018 6:30 1.2 100 0.0 0 0.0 0.1 0.2 261
07/12/2018 6:40 1.0 100 0.0 0 0.0 0.2 0.7 261
07/12/2018 6:50 1.2 100 0.0 0 0.0 0.3 0.9 259
07/12/2018 7:00 1.1 100 0.0 0 0.0 0.1 0.4 236
07/12/2018 7:10 1.3 100 0.0 0 0.0 0.4 1.4 235
07/12/2018 7:20 1.1 100 0.0 0 0.0 0.7 2.3 236
07/12/2018 7:30 0.9 100 0.0 0 0.0 0.4 1.5 238
07/12/2018 7:40 0.8 100 0.0 0 0.0 0.1 0.3 232
07/12/2018 7:50 1.0 100 3.9 0 0.0 0.1 0.4 232
07/12/2018 8:00 0.8 100 17.9 0 0.0 0.2 0.8 128
07/12/2018 8:10 0.9 100 23.3 0 0.0 0.1 0.3 18
07/12/2018 8:20 0.9 100 32.3 34 0.0 0.1 0.3 340
07/12/2018 8:30 1.5 100 111.2 600 0.0 0.0 0.1 340
07/12/2018 8:40 2.8 100 149.6 600 0.0 0.0 0.0 323
07/12/2018 8:50 2.5 100 186.6 600 0.0 0.1 0.3 321
07/12/2018 9:00 3.2 96 214.3 600 0.0 0.2 0.5 281
07/12/2018 9:10 3.6 90 230.7 600 0.0 0.1 0.5 281
07/12/2018 9:20 3.9 89 244.5 600 0.0 0.3 1.0 281
07/12/2018 9:30 4.2 89 254.3 600 0.0 0.8 2.8 220
07/12/2018 9:40 4.5 87 265.9 600 0.0 0.9 3.1 251
07/12/2018 9:50 5.3 86 279.3 600 0.0 0.4 1.6 186
07/12/2018 10:00 5.9 81 297.3 600 0.0 0.8 2.7 222
07/12/2018 10:10 5.6 83 320.3 600 0.0 1.3 4.8 241
07/12/2018 10:20 6.0 82 342.6 600 0.0 1.0 3.5 229
07/12/2018 10:30 6.8 79 363.0 600 0.0 1.0 3.5 207
07/12/2018 10:40 7.4 77 381.9 600 0.0 0.6 2.2 160
07/12/2018 10:50 7.4 77 397.5 600 0.0 1.1 4.1 229
07/12/2018 11:00 7.8 76 409.6 600 0.0 1.1 4.0 233
07/12/2018 11:10 7.9 76 417.6 600 0.0 1.4 4.9 250
07/12/2018 11:20 8.2 75 423.3 600 0.0 1.2 4.4 240
07/12/2018 11:30 8.7 74 426.4 600 0.0 1.1 3.9 202
07/12/2018 11:40 9.0 72 428.9 600 0.0 1.0 3.6 198
07/12/2018 11:50 9.0 73 433.8 600 0.0 0.8 2.8 205
07/12/2018 12:00 9.6 71 414.5 600 0.0 0.8 2.7 233
07/12/2018 12:10 9.7 70 431.6 600 0.0 1.1 4.0 215
07/12/2018 12:20 10.7 68 427.0 600 0.0 0.6 2.2 182
07/12/2018 12:30 10.3 68 421.7 600 0.0 0.8 2.8 220
07/12/2018 12:40 10.8 67 415.9 600 0.0 0.9 3.2 172
07/12/2018 12:50 10.7 67 408.6 600 0.0 1.1 4.1 199
07/12/2018 13:00 11.0 67 400.7 600 0.0 1.4 5.0 245
07/12/2018 13:10 11.4 65 408.2 600 0.0 1.2 4.4 220
07/12/2018 13:20 11.7 64 401.6 600 0.0 1.2 4.4 229
07/12/2018 13:30 11.6 65 290.0 600 0.0 1.3 4.8 234
07/12/2018 13:40 11.3 67 163.6 52 0.0 1.0 3.7 210
07/12/2018 13:50 11.2 68 153.0 14 0.0 1.1 3.9 214
07/12/2018 14:00 11.1 68 154.1 0 0.0 1.3 4.8 236
07/12/2018 14:10 11.0 69 147.1 142 0.0 1.3 4.5 226
07/12/2018 14:20 11.2 68 181.3 364 0.0 1.1 3.8 229
07/12/2018 14:30 11.8 67 318.8 600 0.0 1.1 3.9 225
07/12/2018 14:40 12.6 64 268.6 518 0.0 1.0 3.5 208
07/12/2018 14:50 11.9 67 105.8 0 0.0 1.4 5.1 219
07/12/2018 15:00 11.7 68 88.1 0 0.0 2.1 7.5 241
07/12/2018 15:10 11.7 66 60.0 0 0.0 2.7 9.8 251
07/12/2018 15:20 11.6 69 42.7 0 0.0 2.7 9.6 272
07/12/2018 15:30 11.3 70 26.1 0 0.0 1.9 6.7 316
07/12/2018 15:40 11.3 69 21.7 0 0.0 1.5 5.3 311
07/12/2018 15:50 11.6 65 16.4 0 0.0 1.9 6.7 292
07/12/2018 16:00 11.7 67 14.4 0 0.0 1.6 5.8 278
07/12/2018 16:10 11.6 71 4.8 0 0.0 1.6 5.9 269
07/12/2018 16:20 11.7 71 0.0 0 0.0 1.7 6.3 271
07/12/2018 16:30 11.6 72 0.0 0 0.0 1.7 6.2 278
07/12/2018 16:40 11.6 73 0.0 0 0.0 2.1 7.6 275
07/12/2018 16:50 11.6 73 0.0 0 0.0 2.4 8.5 266
07/12/2018 17:00 11.4 75 0.0 0 0.0 3.0 10.8 267
07/12/2018 17:10 11.2 77 0.0 0 0.0 3.0 10.9 266
07/12/2018 17:20 10.8 80 0.0 0 0.0 3.4 12.2 266
07/12/2018 17:30 10.4 85 0.0 0 0.0 3.4 12.3 271
07/12/2018 17:40 10.1 88 0.0 0 0.0 3.8 13.7 274
07/12/2018 17:50 10.1 88 0.0 0 0.0 3.6 12.8 280
07/12/2018 18:00 10.2 88 0.0 0 0.0 4.0 14.4 279
07/12/2018 18:10 10.1 88 0.0 0 0.0 3.9 14.0 272
07/12/2018 18:20 9.9 90 0.0 0 0.0 3.0 10.8 270
07/12/2018 18:30 9.9 91 0.0 0 0.0 1.8 6.5 270
07/12/2018 18:40 9.8 93 0.0 0 0.0 1.4 5.1 273
07/12/2018 18:50 9.9 95 0.0 0 0.0 1.5 5.3 298
07/12/2018 19:00 10.2 93 0.0 0 0.0 2.9 10.4 307
07/12/2018 19:10 10.2 92 0.0 0 0.0 2.3 8.2 297
07/12/2018 19:20 10.1 91 0.0 0 0.0 2.3 8.2 292
07/12/2018 19:30 10.2 88 0.0 0 0.0 3.0 10.8 295
07/12/2018 19:40 10.4 86 0.0 0 0.0 4.1 14.8 297
07/12/2018 19:50 10.6 84 0.0 0 0.0 2.1 7.4 330
07/12/2018 20:00 10.5 80 0.0 0 0.0 3.1 11.1 325
07/12/2018 20:10 10.4 80 0.0 0 0.0 4.2 15.0 304
07/12/2018 20:20 10.1 82 0.0 0 0.0 4.1 14.7 296
07/12/2018 20:30 10.0 82 0.0 0 0.0 4.0 14.2 299
07/12/2018 20:40 10.0 82 0.0 0 0.0 2.4 8.6 312
07/12/2018 20:50 9.9 79 0.0 0 0.0 2.4 8.7 344
07/12/2018 21:00 9.7 75 0.0 0 0.0 2.9 10.3 330
07/12/2018 21:10 9.6 75 0.0 0 0.0 4.2 14.9 353
07/12/2018 21:20 9.3 75 0.0 0 0.0 3.7 13.3 9
07/12/2018 21:30 9.2 74 0.0 0 0.0 4.3 15.6 9
07/12/2018 21:40 9.1 75 0.0 0 0.0 3.2 11.3 16
07/12/2018 21:50 8.9 75 0.0 0 0.0 3.5 12.4 8
07/12/2018 22:00 8.7 78 0.0 0 0.0 4.0 14.5 353
07/12/2018 22:10 8.6 80 0.0 0 0.0 2.5 9.0 327
07/12/2018 22:20 8.5 79 0.0 0 0.0 2.6 9.4 329
07/12/2018 22:30 8.7 77 0.0 0 0.0 2.8 10.2 316
07/12/2018 22:40 8.7 77 0.0 0 0.0 3.3 11.9 311
07/12/2018 22:50 8.5 79 0.0 0 0.0 3.2 11.4 313
07/12/2018 23:00 8.4 80 0.0 0 0.0 3.6 12.9 308
07/12/2018 23:10 8.6 78 0.0 0 0.0 3.5 12.5 315
07/12/2018 23:20 8.6 77 0.0 0 0.0 2.7 9.5 313
07/12/2018 23:30 8.8 75 0.0 0 0.0 3.0 10.9 305
07/12/2018 23:40 8.8 75 0.0 0 0.0 2.7 9.7 315
07/12/2018 23:50 9.1 72 0.0 0 0.0 3.5 12.5 302
Anterior Página 1 de 1 Siguiente

NOTA: Tipo de datos según el color:
   - Valores diarios o 10 minutos correctos
   - Valores diarios calculados a partir de un número de datos 10 minutos menor que 144 y mayor que 120, o de un número de datos semihorarios menor que 48 y mayor que 40 (caso de las estaciones de Riegos de Navarra y del MARM)
   - Valores diez minutos estimados


Contacto        Enlaces        Aviso legal